Time;durP1;ratioP1;P1;durP2;ratioP2;P2;SDS_P1;SDS_P2;PMS_P1;PMS_P2;Temp;Humidity;BMP_temperature;BMP_pressure;BME280_temperature;BME280_humidity;BME280_pressure;Samples;Min_cycle;Max_cycle;Signal;HPM_P1;HPM_P2
2024/01/22 00:02:00;;;;;;;;;;;;;;;7.17;100.00;100885.16;6273880;22;19907;-77
2024/01/22 00:04:26;;;;;;;;;;;;;;;7.21;100.00;100881.84;6273902;22;20326;-77
2024/01/22 00:06:54;;;;;;;;;;;;;;;7.27;100.00;100871.69;6274053;22;19914;-77
2024/01/22 00:09:19;;;;;;;;;;;;;;;7.30;100.00;100866.66;6274039;22;19910;-77
2024/01/22 00:11:44;;;;;;;;;;;;;;;7.34;100.00;100883.19;6272732;22;19903;-77
2024/01/22 00:14:09;;;;;;;;;;;;;;;7.37;100.00;100865.16;6272389;22;19964;-77
2024/01/22 00:16:39;;;;;;;;;;;;;;;7.37;100.00;100853.09;6272994;22;19903;-77
2024/01/22 00:19:05;;;;;;;;;;;;;;;7.38;100.00;100857.44;6273332;22;19903;-77
2024/01/22 00:21:30;;;;;;;;;;;;;;;7.41;100.00;100854.09;6273967;22;19926;-77
2024/01/22 00:23:56;;;;;;;;;;;;;;;7.43;100.00;100863.69;6245466;22;19914;-77
2024/01/22 00:26:21;;;;;;;;;;;;;;;7.40;100.00;100853.22;6272918;22;19907;-77
2024/01/22 00:28:47;;;;;;;;;;;;;;;7.43;100.00;100837.75;6246275;22;19923;-76
2024/01/22 00:31:12;;;;;;;;;;;;;;;7.45;100.00;100841.28;6272982;22;19918;-77
2024/01/22 00:33:37;;;;;;;;;;;;;;;7.46;100.00;100832.69;6273628;22;19918;-77
2024/01/22 00:36:03;;;;;;;;;;;;;;;7.52;100.00;100818.16;6272638;22;20287;-77
2024/01/22 00:38:28;;;;;;;;;;;;;;;7.52;100.00;100798.31;6272770;22;19954;-77
2024/01/22 00:40:53;;;;;;;;;;;;;;;7.53;100.00;100810.47;6273109;22;20337;-77
2024/01/22 00:43:19;;;;;;;;;;;;;;;7.56;100.00;100805.38;6272350;22;19915;-77
2024/01/22 00:45:44;;;;;;;;;;;;;;;7.61;100.00;100771.81;6270655;22;20727;-77
2024/01/22 00:48:09;;;;;;;;;;;;;;;7.62;100.00;100773.59;6245490;22;19911;-77
2024/01/22 00:50:34;;;;;;;;;;;;;;;7.64;100.00;100792.69;6273602;22;19986;-77
2024/01/22 00:53:00;;;;;;;;;;;;;;;7.64;100.00;100772.81;6273303;22;19918;-77
2024/01/22 00:55:25;;;;;;;;;;;;;;;7.65;100.00;100764.19;6272816;22;20329;-76
2024/01/22 00:57:50;;;;;;;;;;;;;;;7.71;100.00;100775.63;6272944;22;19907;-77
2024/01/22 01:00:16;;;;;;;;;;;;;;;7.70;100.00;100763.47;6272864;22;19938;-77
2024/01/22 01:02:41;;;;;;;;;;;;;;;7.72;100.00;100777.38;6269966;22;19914;-78
2024/01/22 01:05:07;;;;;;;;;;;;;;;7.75;100.00;100772.28;6271376;22;19953;-77
2024/01/22 01:07:32;;;;;;;;;;;;;;;7.77;100.00;100768.91;6272239;22;19903;-77
2024/01/22 01:09:57;;;;;;;;;;;;;;;7.80;100.00;100775.94;6244500;22;19903;-76
2024/01/22 01:12:22;;;;;;;;;;;;;;;7.80;100.00;100756.03;6271841;22;19909;-76
2024/01/22 01:14:48;;;;;;;;;;;;;;;7.85;100.00;100766.59;6273127;22;19910;-77
2024/01/22 01:17:13;;;;;;;;;;;;;;;7.86;100.00;100765.75;6273841;22;19980;-77
2024/01/22 01:19:39;;;;;;;;;;;;;;;7.89;100.00;100763.25;6246267;22;19903;-77
2024/01/22 01:22:04;;;;;;;;;;;;;;;7.91;100.00;100750.38;6273910;22;19931;-77
2024/01/22 01:24:30;;;;;;;;;;;;;;;7.92;100.00;100759.88;6273520;22;20242;-77
2024/01/22 01:26:55;;;;;;;;;;;;;;;7.95;100.00;100781.63;6273549;22;19907;-77
2024/01/22 01:29:20;;;;;;;;;;;;;;;8.00;100.00;100748.91;6246243;22;20330;-78
2024/01/22 01:31:45;;;;;;;;;;;;;;;8.07;100.00;100747.41;6246125;22;19903;-78
2024/01/22 01:34:10;;;;;;;;;;;;;;;8.07;100.00;100750.00;6272949;22;19938;-77
2024/01/22 01:36:36;;;;;;;;;;;;;;;8.11;100.00;100705.16;6273462;22;19949;-78
2024/01/22 01:39:02;;;;;;;;;;;;;;;8.12;100.00;100717.28;6273342;22;19909;-77
2024/01/22 01:41:27;;;;;;;;;;;;;;;8.14;100.00;100715.63;6273601;22;19926;-76
2024/01/22 01:43:52;;;;;;;;;;;;;;;8.18;100.00;100721.78;6272791;22;20323;-77
2024/01/22 01:46:17;;;;;;;;;;;;;;;8.18;100.00;100730.47;6272128;22;20392;-76
2024/01/22 01:48:43;;;;;;;;;;;;;;;8.18;100.00;100704.53;6272674;22;19907;-77
2024/01/22 01:51:08;;;;;;;;;;;;;;;8.21;100.00;100726.22;6274761;22;20518;-77
2024/01/22 01:53:33;;;;;;;;;;;;;;;8.24;100.00;100716.81;6246718;22;19914;-77
2024/01/22 01:55:59;;;;;;;;;;;;;;;8.27;100.00;100700.44;6248001;22;19909;-77
2024/01/22 01:58:25;;;;;;;;;;;;;;;8.31;100.00;100691.91;6274649;22;20494;-77
2024/01/22 02:00:51;;;;;;;;;;;;;;;8.30;100.00;100705.75;6275133;22;20264;-77
2024/01/22 02:03:16;;;;;;;;;;;;;;;8.32;100.00;100693.69;6247592;22;19954;-77
2024/01/22 02:05:41;;;;;;;;;;;;;;;8.32;100.00;100678.09;6273962;22;20041;-76
2024/01/22 02:08:07;;;;;;;;;;;;;;;8.34;100.00;100673.81;6274013;22;19907;-77
2024/01/22 02:10:32;;;;;;;;;;;;;;;8.33;100.00;100705.84;6274809;22;19994;-76
2024/01/22 02:12:57;;;;;;;;;;;;;;;8.35;100.00;100688.56;6274992;22;19965;-76
2024/01/22 02:15:22;;;;;;;;;;;;;;;8.36;100.00;100673.03;6274150;22;19911;-77
2024/01/22 02:17:48;;;;;;;;;;;;;;;8.37;100.00;100676.50;6247353;22;20365;-77
2024/01/22 02:20:13;;;;;;;;;;;;;;;8.38;100.00;100673.09;6246638;22;19915;-77
2024/01/22 02:22:38;;;;;;;;;;;;;;;8.38;100.00;100654.91;6247535;22;19907;-77
2024/01/22 02:25:04;;;;;;;;;;;;;;;8.41;100.00;100651.53;6274122;22;19911;-77
2024/01/22 02:27:29;;;;;;;;;;;;;;;8.41;100.00;100648.94;6274733;22;19914;-77
2024/01/22 02:29:54;;;;;;;;;;;;;;;8.42;100.00;100620.41;6247589;22;20002;-76
2024/01/22 02:32:20;;;;;;;;;;;;;;;8.43;100.00;100617.00;6274768;22;20058;-77
2024/01/22 02:34:45;;;;;;;;;;;;;;;8.47;100.00;100621.47;6274857;22;19907;-77
2024/01/22 02:37:10;;;;;;;;;;;;;;;8.48;100.00;100623.22;6273895;22;20254;-76
2024/01/22 02:39:36;;;;;;;;;;;;;;;8.50;100.00;100611.16;6274059;22;19907;-77
2024/01/22 02:42:01;;;;;;;;;;;;;;;8.51;100.00;100592.13;6273310;22;19919;-76
2024/01/22 02:44:26;;;;;;;;;;;;;;;8.52;100.00;100577.47;6272575;22;19903;-77
2024/01/22 02:46:52;;;;;;;;;;;;;;;8.53;100.00;100569.72;6247155;22;20330;-77
2024/01/22 02:49:18;;;;;;;;;;;;;;;8.55;100.00;100564.56;6273991;22;20238;-77
2024/01/22 02:51:43;;;;;;;;;;;;;;;8.56;100.00;100571.50;6274284;22;19910;-77
2024/01/22 02:54:08;;;;;;;;;;;;;;;8.56;100.00;100561.13;6273561;22;19903;-77
2024/01/22 02:56:34;;;;;;;;;;;;;;;8.56;100.00;100570.63;6274192;22;19958;-77
2024/01/22 02:58:59;;;;;;;;;;;;;;;8.55;100.00;100551.56;6247224;22;20311;-77
2024/01/22 03:01:24;;;;;;;;;;;;;;;8.56;100.00;100537.75;6272749;22;20289;-77
2024/01/22 03:03:50;;;;;;;;;;;;;;;8.58;100.00;100548.19;6246612;22;20211;-77
2024/01/22 03:06:15;;;;;;;;;;;;;;;8.57;100.00;100529.09;6272657;22;19938;-77
2024/01/22 03:08:40;;;;;;;;;;;;;;;8.57;100.00;100530.84;6274368;22;19907;-78
2024/01/22 03:11:06;;;;;;;;;;;;;;;8.57;100.00;100528.25;6274729;22;20280;-78
2024/01/22 03:13:32;;;;;;;;;;;;;;;8.56;100.00;100524.78;6273953;22;19910;-77
2024/01/22 03:15:57;;;;;;;;;;;;;;;8.58;100.00;100517.03;6274610;22;19903;-78
2024/01/22 03:18:22;;;;;;;;;;;;;;;8.58;100.00;100510.09;6274127;22;19909;-77
2024/01/22 03:20:48;;;;;;;;;;;;;;;8.59;100.00;100500.56;6274256;22;19974;-77
2024/01/22 03:23:13;;;;;;;;;;;;;;;8.60;100.00;100507.53;6274776;22;19903;-77
2024/01/22 03:25:38;;;;;;;;;;;;;;;8.59;100.00;100495.38;6274607;22;20266;-77
2024/01/22 03:28:03;;;;;;;;;;;;;;;8.61;100.00;100499.78;6247140;22;19907;-77
2024/01/22 03:30:29;;;;;;;;;;;;;;;8.63;100.00;100494.63;6272586;22;19929;-77
2024/01/22 03:32:54;;;;;;;;;;;;;;;8.63;100.00;100487.72;6274606;22;19903;-77
2024/01/22 03:35:20;;;;;;;;;;;;;;;8.63;100.00;100487.72;6274435;22;19945;-76
2024/01/22 03:37:46;;;;;;;;;;;;;;;8.65;100.00;100492.97;6246899;22;20413;-77
2024/01/22 03:40:11;;;;;;;;;;;;;;;8.67;100.00;100479.16;6274315;22;19913;-77
2024/01/22 03:42:36;;;;;;;;;;;;;;;8.67;100.00;100468.75;6274247;22;19911;-77
2024/01/22 03:45:02;;;;;;;;;;;;;;;8.69;100.00;100481.81;6274199;22;19903;-78
2024/01/22 03:47:27;;;;;;;;;;;;;;;8.70;100.00;100476.66;6274322;22;20345;-77
2024/01/22 03:49:52;;;;;;;;;;;;;;;8.70;100.00;100483.56;6247040;22;19911;-77
2024/01/22 03:52:18;;;;;;;;;;;;;;;8.71;100.00;100474.94;6274339;22;20288;-77
2024/01/22 03:54:43;;;;;;;;;;;;;;;8.72;100.00;100461.13;6247045;22;19972;-78
2024/01/22 03:57:08;;;;;;;;;;;;;;;8.74;100.00;100466.34;6246953;22;19907;-78
2024/01/22 03:59:34;;;;;;;;;;;;;;;8.76;100.00;100468.16;6274422;22;19904;-77
2024/01/22 04:01:59;;;;;;;;;;;;;;;8.81;100.00;100469.13;6274236;22;19910;-77
2024/01/22 04:04:25;;;;;;;;;;;;;;;8.81;100.00;100458.72;6273819;22;19903;-77
2024/01/22 04:06:50;;;;;;;;;;;;;;;8.85;100.00;100457.09;6273812;22;19914;-77
2024/01/22 04:09:15;;;;;;;;;;;;;;;8.82;100.00;100478.69;6273836;22;19910;-78
2024/01/22 04:11:41;;;;;;;;;;;;;;;8.84;100.00;100461.41;6273988;22;19907;-77
2024/01/22 04:14:06;;;;;;;;;;;;;;;8.84;100.00;100445.81;6273927;22;19903;-77
2024/01/22 04:16:32;;;;;;;;;;;;;;;8.86;100.00;100459.75;6246029;22;20318;-77
2024/01/22 04:18:57;;;;;;;;;;;;;;;8.87;100.00;100464.06;6246620;22;19964;-77
2024/01/22 04:21:22;;;;;;;;;;;;;;;8.87;100.00;100448.47;6246269;22;19910;-77
2024/01/22 04:23:47;;;;;;;;;;;;;;;8.92;100.00;100455.50;6246815;22;20237;-78
2024/01/22 04:26:12;;;;;;;;;;;;;;;8.93;100.00;100444.28;6246379;22;19918;-77
2024/01/22 04:28:38;;;;;;;;;;;;;;;8.93;100.00;100441.69;6271492;22;19903;-78
2024/01/22 04:31:03;;;;;;;;;;;;;;;8.96;100.00;100440.03;6273804;22;19949;-77
2024/01/22 04:33:29;;;;;;;;;;;;;;;8.97;100.00;100454.78;6273508;22;19967;-78
2024/01/22 04:35:54;;;;;;;;;;;;;;;8.99;100.00;100449.63;6246458;22;20368;-78
2024/01/22 04:38:19;;;;;;;;;;;;;;;9.00;100.00;100436.66;6272175;22;20559;-78
2024/01/22 04:40:45;;;;;;;;;;;;;;;9.03;100.00;100438.47;6273743;22;19899;-78
2024/01/22 04:43:10;;;;;;;;;;;;;;;9.05;100.00;100429.88;6272760;22;19911;-77
2024/01/22 04:45:36;;;;;;;;;;;;;;;9.08;100.00;100438.56;6245428;22;19911;-78
2024/01/22 04:48:02;;;;;;;;;;;;;;;9.10;100.00;100429.97;6273322;22;19915;-77
2024/01/22 04:50:27;;;;;;;;;;;;;;;9.14;100.00;100438.69;6272936;22;19907;-78
2024/01/22 04:52:52;;;;;;;;;;;;;;;9.19;100.00;100427.56;6246358;22;19993;-77
2024/01/22 04:55:18;;;;;;;;;;;;;;;9.28;100.00;100436.41;6272510;22;19907;-78
2024/01/22 04:57:43;;;;;;;;;;;;;;;9.30;100.00;100435.63;6273185;22;20215;-78
2024/01/22 05:00:08;;;;;;;;;;;;;;;9.32;100.00;100440.84;6272393;22;19907;-78
2024/01/22 05:02:33;;;;;;;;;;;;;;;9.36;100.00;100417.53;6272240;22;19907;-78
2024/01/22 05:05:02;;;;;;;;;;;;;;;9.38;100.00;100440.97;6273328;22;19902;-77
2024/01/22 05:07:27;;;;;;;;;;;;;;;9.42;100.00;100427.19;6245471;22;19903;-78
2024/01/22 05:10:04;;;;;;;;;;;;;;;9.45;100.00;100435.06;6272155;22;19907;-78
2024/01/22 05:12:29;;;;;;;;;;;;;;;9.45;100.00;100435.06;6272911;22;19907;-78
2024/01/22 05:14:55;;;;;;;;;;;;;;;9.46;100.00;100418.63;6272922;22;19926;-78
2024/01/22 05:17:21;;;;;;;;;;;;;;;9.48;100.00;100414.31;6273416;22;20470;-78
2024/01/22 05:19:47;;;;;;;;;;;;;;;9.49;100.00;100412.63;6272817;22;19930;-78
2024/01/22 05:22:12;;;;;;;;;;;;;;;9.51;100.00;100423.91;6271808;22;19903;-78
2024/01/22 05:24:37;;;;;;;;;;;;;;;9.54;100.00;100410.97;6246439;22;19903;-77
2024/01/22 05:27:03;;;;;;;;;;;;;;;9.58;100.00;100415.38;6274883;22;20318;-77
2024/01/22 05:29:28;;;;;;;;;;;;;;;9.62;100.00;100400.75;6274241;22;19903;-77
2024/01/22 05:31:54;;;;;;;;;;;;;;;9.65;100.00;100411.22;6273825;22;20081;-78
2024/01/22 05:34:19;;;;;;;;;;;;;;;9.67;100.00;100399.97;6273998;22;19910;-77
2024/01/22 05:36:44;;;;;;;;;;;;;;;9.71;100.00;100411.31;6273202;22;19903;-77
2024/01/22 05:39:09;;;;;;;;;;;;;;;9.74;100.00;100417.44;6274762;22;20314;-77
2024/01/22 05:41:35;;;;;;;;;;;;;;;9.77;100.00;100432.25;6274306;22;19903;-77
2024/01/22 05:44:00;;;;;;;;;;;;;;;9.78;100.00;100410.59;6274825;22;19911;-78
2024/01/22 05:46:26;;;;;;;;;;;;;;;9.79;100.00;100424.47;6247827;22;19915;-77
2024/01/22 05:48:51;;;;;;;;;;;;;;;9.78;100.00;100418.41;6274382;22;19927;-78
2024/01/22 05:51:17;;;;;;;;;;;;;;;9.78;100.00;100414.94;6273637;22;20215;-77
2024/01/22 05:53:42;;;;;;;;;;;;;;;9.76;100.00;100435.69;6274500;22;19903;-77
2024/01/22 05:56:08;;;;;;;;;;;;;;;9.75;100.00;100434.81;6272817;22;19911;-78
2024/01/22 05:58:34;;;;;;;;;;;;;;;9.74;100.00;100440.00;6274157;22;20888;-78
2024/01/22 06:01:00;;;;;;;;;;;;;;;9.72;100.00;100447.78;6247248;22;19903;-78
2024/01/22 06:03:25;;;;;;;;;;;;;;;9.70;100.00;100443.38;6274950;22;19903;-78
2024/01/22 06:05:50;;;;;;;;;;;;;;;9.68;100.00;100439.88;6247568;22;20531;-78
2024/01/22 06:08:15;;;;;;;;;;;;;;;9.66;100.00;100449.34;6274298;22;20234;-78
2024/01/22 06:10:42;;;;;;;;;;;;;;;9.65;100.00;100464.09;6275240;22;19984;-78
2024/01/22 06:13:08;;;;;;;;;;;;;;;9.65;100.00;100442.41;6274672;22;19899;-77
2024/01/22 06:15:33;;;;;;;;;;;;;;;9.64;100.00;100462.34;6275319;22;19966;-77
2024/01/22 06:17:58;;;;;;;;;;;;;;;9.65;100.00;100435.47;6246848;22;20234;-78
2024/01/22 06:20:23;;;;;;;;;;;;;;;9.66;100.00;100433.75;6247521;22;20322;-78
2024/01/22 06:22:49;;;;;;;;;;;;;;;9.66;100.00;100429.44;6274210;22;20389;-77
2024/01/22 06:25:14;;;;;;;;;;;;;;;9.65;100.00;100430.28;6274664;22;20218;-78
2024/01/22 06:27:40;;;;;;;;;;;;;;;9.64;100.00;100438.91;6274426;22;19915;-78
2024/01/22 06:30:06;;;;;;;;;;;;;;;9.64;100.00;100438.06;6272534;22;19939;-77
2024/01/22 06:32:32;;;;;;;;;;;;;;;9.65;100.00;100426.81;6273425;22;19957;-78
2024/01/22 06:34:57;;;;;;;;;;;;;;;9.65;100.00;100447.63;6247305;22;19907;-77
2024/01/22 06:37:23;;;;;;;;;;;;;;;9.65;100.00;100438.09;6274067;22;19906;-77
2024/01/22 06:39:48;;;;;;;;;;;;;;;9.64;100.00;100438.91;6273468;22;19953;-77
2024/01/22 06:42:13;;;;;;;;;;;;;;;9.64;100.00;100443.25;6273966;22;19918;-77
2024/01/22 06:44:39;;;;;;;;;;;;;;;9.65;100.00;100442.41;6274248;22;19915;-77
2024/01/22 06:47:05;;;;;;;;;;;;;;;9.64;100.00;100454.53;6274508;22;19982;-77
2024/01/22 06:49:30;;;;;;;;;;;;;;;9.65;100.00;100471.91;6273229;22;20432;-77
2024/01/22 06:51:57;;;;;;;;;;;;;;;9.66;100.00;100470.16;6273807;22;20325;-77
2024/01/22 06:54:22;;;;;;;;;;;;;;;9.68;100.00;100461.56;6274692;22;20374;-77
2024/01/22 06:56:47;;;;;;;;;;;;;;;9.69;100.00;100478.03;6273343;22;19942;-77
2024/01/22 06:59:12;;;;;;;;;;;;;;;9.71;100.00;100469.41;6273455;22;19903;-77
2024/01/22 07:01:38;;;;;;;;;;;;;;;9.73;100.00;100470.34;6274461;22;19910;-77
2024/01/22 07:04:03;;;;;;;;;;;;;;;9.73;100.00;100479.84;6247460;22;19907;-77
2024/01/22 07:06:28;;;;;;;;;;;;;;;9.72;100.00;100486.78;6246739;22;19978;-77
2024/01/22 07:08:54;;;;;;;;;;;;;;;9.72;100.00;100471.19;6273713;22;19903;-78
2024/01/22 07:11:19;;;;;;;;;;;;;;;9.73;100.00;100466.84;6273217;22;19949;-78
2024/01/22 07:13:44;;;;;;;;;;;;;;;9.71;100.00;100469.41;6272608;22;19910;-78
2024/01/22 07:16:10;;;;;;;;;;;;;;;9.71;100.00;100476.34;6274459;22;19964;-76
2024/01/22 07:18:35;;;;;;;;;;;;;;;9.71;100.00;100479.81;6273567;22;20009;-78
2024/01/22 07:21:00;;;;;;;;;;;;;;;9.74;100.00;100469.47;6273836;22;20045;-78
2024/01/22 07:23:26;;;;;;;;;;;;;;;9.75;100.00;100480.78;6273775;22;19913;-78
2024/01/22 07:25:51;;;;;;;;;;;;;;;9.75;100.00;100465.19;6274416;22;19918;-77
2024/01/22 07:28:16;;;;;;;;;;;;;;;9.77;100.00;100465.22;6273744;22;20410;-78
2024/01/22 07:30:42;;;;;;;;;;;;;;;9.77;100.00;100473.00;6273922;22;19998;-78
2024/01/22 07:33:08;;;;;;;;;;;;;;;9.79;100.00;100460.91;6274307;22;19907;-77
2024/01/22 07:35:33;;;;;;;;;;;;;;;9.81;100.00;100467.91;6274346;22;20001;-78
2024/01/22 07:37:58;;;;;;;;;;;;;;;9.83;100.00;100474.00;6247191;22;19907;-78
2024/01/22 07:40:23;;;;;;;;;;;;;;;9.84;100.00;100478.38;6274154;22;19934;-77
2024/01/22 07:42:49;;;;;;;;;;;;;;;9.86;100.00;100474.09;6246910;22;19915;-78
2024/01/22 07:45:14;;;;;;;;;;;;;;;9.87;100.00;100473.22;6246545;22;19907;-78
2024/01/22 07:47:40;;;;;;;;;;;;;;;9.88;100.00;100480.19;6273982;22;19903;-78
2024/01/22 07:50:05;;;;;;;;;;;;;;;9.90;100.00;100475.00;6274068;22;19930;-78
2024/01/22 07:52:31;;;;;;;;;;;;;;;9.88;100.00;100493.19;6274409;22;19926;-78
2024/01/22 07:54:57;;;;;;;;;;;;;;;9.89;100.00;100487.16;6274251;22;20322;-78
2024/01/22 07:57:22;;;;;;;;;;;;;;;9.88;100.00;100493.19;6247328;22;19904;-78
2024/01/22 07:59:47;;;;;;;;;;;;;;;9.89;100.00;100494.06;6246754;22;19978;-78
2024/01/22 08:02:12;;;;;;;;;;;;;;;9.89;100.00;100484.56;6274143;22;19903;-78
2024/01/22 08:04:38;;;;;;;;;;;;;;;9.88;100.00;100488.00;6247011;22;20314;-78
2024/01/22 08:07:03;;;;;;;;;;;;;;;9.88;100.00;100482.78;6273456;22;19907;-77
2024/01/22 08:09:29;;;;;;;;;;;;;;;9.88;100.00;100490.59;6273847;22;20274;-78
2024/01/22 08:11:55;;;;;;;;;;;;;;;9.88;100.00;100485.38;6272402;22;19903;-77
2024/01/22 08:14:20;;;;;;;;;;;;;;;9.88;100.00;100488.00;6244409;22;19961;-78
2024/01/22 08:16:46;;;;;;;;;;;;;;;9.87;100.00;100496.63;6272989;22;19910;-77
2024/01/22 08:19:11;;;;;;;;;;;;;;;9.92;100.00;100515.84;6271168;22;19913;-78
2024/01/22 08:21:36;;;;;;;;;;;;;;;9.92;100.00;100501.94;6270340;22;19909;-78
2024/01/22 08:24:02;;;;;;;;;;;;;;;9.92;100.00;100505.44;6244528;22;20277;-78
2024/01/22 08:26:27;;;;;;;;;;;;;;;9.92;100.00;100518.44;6271809;22;19907;-78
2024/01/22 08:28:52;;;;;;;;;;;;;;;9.93;100.00;100534.94;6269830;22;19910;-77
2024/01/22 08:31:17;;;;;;;;;;;;;;;9.91;100.00;100527.09;6244057;22;19907;-77
2024/01/22 08:33:44;;;;;;;;;;;;;;;9.91;100.00;100518.41;6268468;22;19907;-78
2024/01/22 08:36:09;;;;;;;;;;;;;;;9.90;100.00;100522.72;6269702;22;20330;-77
2024/01/22 08:38:35;;;;;;;;;;;;;;;9.89;100.00;100526.19;6268175;22;19910;-78
2024/01/22 08:41:00;;;;;;;;;;;;;;;9.88;100.00;100516.63;6271517;22;19956;-77
2024/01/22 08:43:25;;;;;;;;;;;;;;;9.87;100.00;100538.28;6246145;22;19911;-77
2024/01/22 08:45:50;;;;;;;;;;;;;;;9.86;100.00;100536.53;6272127;22;19907;-77
2024/01/22 08:48:16;;;;;;;;;;;;;;;9.87;100.00;100540.00;6270874;22;20348;-76
2024/01/22 08:50:41;;;;;;;;;;;;;;;9.90;100.00;100540.06;6272424;22;19953;-76
2024/01/22 08:53:06;;;;;;;;;;;;;;;9.86;100.00;100549.56;6272872;22;19904;-78
2024/01/22 08:55:31;;;;;;;;;;;;;;;9.83;100.00;100546.84;6273144;22;20326;-77
2024/01/22 08:57:57;;;;;;;;;;;;;;;9.85;100.00;100539.13;6273520;22;20233;-76
2024/01/22 09:00:22;;;;;;;;;;;;;;;9.86;100.00;100541.75;6272948;22;19903;-78
2024/01/22 09:02:47;;;;;;;;;;;;;;;9.86;100.00;100536.53;6246202;22;20263;-77
2024/01/22 09:05:13;;;;;;;;;;;;;;;9.88;100.00;100529.63;6272842;22;19960;-77
2024/01/22 09:07:38;;;;;;;;;;;;;;;9.87;100.00;100530.47;6245972;22;19969;-77
2024/01/22 09:10:07;;;;;;;;;;;;;;;9.86;100.00;100533.03;6270228;22;20234;-77
2024/01/22 09:12:35;;;;;;;;;;;;;;;9.86;100.00;100531.34;6270722;22;19982;-78
2024/01/22 09:15:01;;;;;;;;;;;;;;;9.82;100.00;100529.50;6268195;22;19907;-77
2024/01/22 09:17:26;;;;;;;;;;;;;;;9.80;100.00;100515.56;6267866;22;19987;-77
2024/01/22 09:19:51;;;;;;;;;;;;;;;9.79;100.00;100525.94;6273148;22;19974;-77
2024/01/22 09:22:16;;;;;;;;;;;;;;;9.76;100.00;100521.53;6273345;22;19903;-77
2024/01/22 09:24:42;;;;;;;;;;;;;;;9.75;100.00;100517.22;6272819;22;19956;-77
2024/01/22 09:27:07;;;;;;;;;;;;;;;9.76;100.00;100516.34;6273173;22;20320;-77
2024/01/22 09:29:32;;;;;;;;;;;;;;;9.75;100.00;100522.41;6246234;22;20246;-76
2024/01/22 09:31:57;;;;;;;;;;;;;;;9.74;100.00;100515.44;6273327;22;20029;-77
2024/01/22 09:34:22;;;;;;;;;;;;;;;9.75;100.00;100527.63;6273179;22;19938;-78
2024/01/22 09:36:48;;;;;;;;;;;;;;;9.74;100.00;100520.66;6273724;22;19903;-78
2024/01/22 09:39:13;;;;;;;;;;;;;;;9.73;100.00;100511.06;6273671;22;19903;-77
2024/01/22 09:41:38;;;;;;;;;;;;;;;9.74;100.00;100523.25;6273352;22;19931;-77
2024/01/22 09:44:04;;;;;;;;;;;;;;;9.74;100.00;100524.13;6245499;22;19910;-76
2024/01/22 09:46:30;;;;;;;;;;;;;;;9.73;100.00;100526.69;6273050;22;19914;-76
2024/01/22 09:48:55;;;;;;;;;;;;;;;9.74;100.00;100541.47;6273387;22;19907;-77
2024/01/22 09:51:20;;;;;;;;;;;;;;;9.76;100.00;100539.75;6273390;22;19984;-77
2024/01/22 09:53:47;;;;;;;;;;;;;;;9.76;100.00;100537.16;6272960;22;20684;-77
2024/01/22 09:56:15;;;;;;;;;;;;;;;9.77;100.00;100557.13;6272630;22;19911;-77
2024/01/22 09:58:43;;;;;;;;;;;;;;;9.79;100.00;100563.28;6271348;22;19903;-77
2024/01/22 10:01:10;;;;;;;;;;;;;;;9.80;100.00;100566.75;6271368;22;19903;-77
2024/01/22 10:03:36;;;;;;;;;;;;;;;9.82;100.00;100570.25;6271894;22;19910;-77
2024/01/22 10:06:01;;;;;;;;;;;;;;;9.81;100.00;100569.38;6244239;22;19911;-77
2024/01/22 10:08:27;;;;;;;;;;;;;;;9.81;100.00;100574.59;6272575;22;19945;-77
2024/01/22 10:10:52;;;;;;;;;;;;;;;9.81;100.00;100582.38;6272974;22;20262;-77
2024/01/22 10:13:17;;;;;;;;;;;;;;;9.83;100.00;100611.03;6273703;22;19907;-76
2024/01/22 10:15:43;;;;;;;;;;;;;;;9.85;100.00;100618.03;6246748;22;19968;-77
2024/01/22 10:18:10;;;;;;;;;;;;;;;9.84;100.00;100639.69;6274164;22;20564;-77
2024/01/22 10:20:35;;;;;;;;;;;;;;;9.80;100.00;100618.78;6272653;22;19907;-76
2024/01/22 10:23:01;;;;;;;;;;;;;;;9.62;100.00;100638.31;6272720;22;19903;-76
2024/01/22 10:25:26;;;;;;;;;;;;;;;9.45;100.00;100665.66;6272669;22;19907;-77
2024/01/22 10:28:06;;;;;;;;;;;;;;;9.34;100.00;100680.94;6272526;22;20242;-76
2024/01/22 10:30:31;;;;;;;;;;;;;;;9.20;100.00;100678.00;6273723;22;19903;-76
2024/01/22 10:33:10;;;;;;;;;;;;;;;9.10;100.00;100696.81;6246025;22;20002;-76
2024/01/22 10:35:35;;;;;;;;;;;;;;;9.00;100.00;100680.06;6273617;22;19920;-76
2024/01/22 10:38:07;;;;;;;;;;;;;;;8.93;100.00;100681.59;6246308;22;20234;-77
2024/01/22 10:40:32;;;;;;;;;;;;;;;8.87;100.00;100686.66;6274698;22;19978;-77
2024/01/22 10:42:57;;;;;;;;;;;;;;;8.83;100.00;100692.59;6241778;23;20342;-76
2024/01/22 10:45:25;;;;;;;;;;;;;;;8.79;100.00;100690.72;6243415;23;20338;-75
2024/01/22 10:47:51;;;;;;;;;;;;;;;8.73;100.00;100688.84;6243306;23;19903;-77
2024/01/22 10:50:17;;;;;;;;;;;;;;;8.70;100.00;100683.56;6243492;23;19907;-77
2024/01/22 10:52:44;;;;;;;;;;;;;;;8.66;100.00;100684.31;6216284;23;20339;-76
2024/01/22 10:55:09;;;;;;;;;;;;;;;8.65;100.00;100688.63;6216544;23;19895;-77
2024/01/22 10:57:37;;;;;;;;;;;;;;;8.65;100.00;100690.34;6243076;23;19926;-77
2024/01/22 11:00:06;;;;;;;;;;;;;;;8.65;100.00;100692.97;6242044;23;19929;-76
2024/01/22 11:02:33;;;;;;;;;;;;;;;8.64;100.00;100679.06;6242292;23;19971;-76
2024/01/22 11:05:04;;;;;;;;;;;;;;;8.66;100.00;100685.22;6242883;23;20129;-76
2024/01/22 11:07:31;;;;;;;;;;;;;;;8.68;100.00;100690.44;6216069;23;20228;-77
2024/01/22 11:09:57;;;;;;;;;;;;;;;8.69;100.00;100692.22;6242874;23;19940;-77
2024/01/22 11:12:25;;;;;;;;;;;;;;;8.71;100.00;100693.13;6242923;23;19914;-77
2024/01/22 11:14:51;;;;;;;;;;;;;;;8.73;100.00;100698.38;6242832;23;19982;-76
2024/01/22 11:17:18;;;;;;;;;;;;;;;8.72;100.00;100700.09;6241959;23;19989;-76
2024/01/22 11:19:44;;;;;;;;;;;;;;;8.74;100.00;100713.13;6240592;23;20292;-76
2024/01/22 11:22:22;;;;;;;;;;;;;;;8.74;100.00;100719.19;6242580;23;19908;-77
2024/01/22 11:25:01;;;;;;;;;;;;;;;8.76;100.00;100719.22;6216344;23;19946;-77
2024/01/22 11:27:39;;;;;;;;;;;;;;;8.77;100.00;100727.06;6244103;23;19982;-77
2024/01/22 11:30:19;;;;;;;;;;;;;;;8.78;100.00;100731.44;6243767;23;19911;-76
2024/01/22 11:32:45;;;;;;;;;;;;;;;8.82;100.00;100725.50;6241716;23;19908;-76
2024/01/22 11:35:10;;;;;;;;;;;;;;;8.83;100.00;100729.81;6213858;23;20456;-76
2024/01/22 11:37:36;;;;;;;;;;;;;;;8.83;100.00;100724.63;6210321;23;19908;-76
2024/01/22 11:40:02;;;;;;;;;;;;;;;8.84;100.00;100731.59;6238368;23;19970;-76
2024/01/22 11:42:31;;;;;;;;;;;;;;;8.87;100.00;100730.81;6225520;22;19978;-76
2024/01/22 11:44:58;;;;;;;;;;;;;;;8.92;100.00;100737.03;6273556;22;19910;-76
2024/01/22 11:47:23;;;;;;;;;;;;;;;8.98;100.00;100752.78;6273555;22;20211;-76
2024/01/22 11:49:49;;;;;;;;;;;;;;;9.05;100.00;100752.13;6246033;22;20005;-75
2024/01/22 11:52:16;;;;;;;;;;;;;;;9.10;100.00;100754.84;6245973;22;19907;-76
2024/01/22 11:54:53;;;;;;;;;;;;;;;9.17;100.00;100749.00;6273363;22;19907;-76
2024/01/22 11:57:18;;;;;;;;;;;;;;;9.22;100.00;100765.63;6245334;22;19907;-76
2024/01/22 11:59:56;;;;;;;;;;;;;;;9.27;100.00;100765.72;6273669;22;20380;-76
2024/01/22 12:02:21;;;;;;;;;;;;;;;9.29;100.00;100766.63;6273210;22;19942;-75
2024/01/22 12:04:47;;;;;;;;;;;;;;;9.27;100.00;100783.03;6273260;22;19907;-74
2024/01/22 12:07:12;;;;;;;;;;;;;;;9.27;100.00;100772.63;6273352;22;19918;-74
2024/01/22 12:09:37;;;;;;;;;;;;;;;9.29;100.00;100773.56;6246342;22;19903;-74
2024/01/22 12:12:04;;;;;;;;;;;;;;;9.33;100.00;100786.69;6273473;22;19995;-75
2024/01/22 12:14:29;;;;;;;;;;;;;;;9.38;100.00;100771.22;6273224;22;20330;-74
2024/01/22 12:17:01;;;;;;;;;;;;;;;9.45;100.00;100780.94;6273000;22;20356;-74
2024/01/22 12:19:26;;;;;;;;;;;;;;;9.51;100.00;100783.69;6273806;22;19961;-75
2024/01/22 12:21:51;;;;;;;;;;;;;;;9.57;100.00;100777.78;6273328;22;19911;-75
2024/01/22 12:24:16;;;;;;;;;;;;;;;9.60;100.00;100797.81;6273504;22;19934;-74
2024/01/22 12:26:42;;;;;;;;;;;;;;;9.63;100.00;100797.88;6272876;22;19911;-74
2024/01/22 12:29:16;;;;;;;;;;;;;;;9.63;100.00;100797.88;6274003;22;19903;-74